SANR

Termas De Rio Ho Airport

Termas De Rio Ho, Argentina
TAF SANR 141100Z 1412/1512 23010KT 9999 SCT035 FEW040 TX32/1418Z TN24/1510Z BECMG 18010KT 1500/1503 18010KT 6000 TSSHRA SCT015 BKN025 FEW040CB
Issued Valid From Valid To
Dec-14 @ 11:00 UTC
(11 hours ago)
Dec-14 @ 12:00 UTC
(10 hours ago)
Dec-15 @ 12:00 UTC
(in 14 hours)
Dec-14 @ 12:00 to Dec-15 @ 12:00
TAF SANR 141100Z 1412/1512 23010KT 9999 SCT035 FEW040 TX32/1418Z TN24/1510Z
Wind Visibility Clouds
230° at 10 knots 10,000+ meters
  • Scattered at 3,500' AGL
  • Few at 4,000' AGL
TAF SANR 141100Z 1412/1512 23010KT 9999 SCT035 FEW040 TX32/1418Z TN24/1510Z BECMG 18010KT 1500/1503 18010KT 6000 TSSHRA SCT015 BKN025 FEW040CB
Issued Dec-14 @ 11:00 UTC
(11 hours ago)
Valid From Dec-14 @ 12:00 UTC
(10 hours ago)
Valid To Dec-15 @ 12:00 UTC
(in 14 hours)
Dec-14 @ 12:00 - Dec-15 @ 12:00
Wind Visibility
230° at 10 knots 10,000+ meters
Clouds
  • Scattered at 3,500' AGL
  • Few at 4,000' AGL